Spokane, WA (99206)

2:21 PM PST on February 14, 2016 (GMT -0800)
I-90 & Sprague Ave | | Change Station
CLOSE
Current Station
Personal Weather Station
Location: Spokane Valley, WA
Elevation: 1991 ft
Nearby Weather Stations

Elev 1991 ft 47.65 °N, 117.31 °W | Updated 7 seconds ago

Mostly Cloudy
Mostly Cloudy
47.8 °F
Feels Like 48 °F
N
1.6
Wind Variable Wind from SW
Gusts 1.6 mph

Today
High -- | Low -- °F
--% Chance of Precip.
Yesterday
High -- | Low -- °F
Precip. -- in
Pressure 30.11 in
Visibility 10.0 miles
Clouds Mostly Cloudy 1300 ft
Windchill 48 °F
Dew Point 42 °F
Humidity 79%
Rainfall 0.00 in
Snow Depth Not available.
6:57 AM 5:10 PM
Waxing Crescent, 46% visible
METAR KSFF 142153Z 00000KT 10SM BKN013 08/05 A3009 RMK AO2 SLP196 T00830050
Pressure 30.11 in
Visibility 10.0 miles
Clouds Mostly Cloudy 1300 ft
Windchill 48 °F
Dew Point 42 °F
Humidity 79%
Rainfall 0.00 in
Snow Depth Not available.
6:57 AM 5:10 PM
Waxing Crescent, 46% visible
METAR KSFF 142153Z 00000KT 10SM BKN013 08/05 A3009 RMK AO2 SLP196 T00830050

10-Day Weather Forecast

Almanac

Astronomy

Feb. 14, 2016 Rise Set
Actual Time
Civil Twilight
Nautical Twilight
Astronomical Twilight
Moon
Length of Visible Light
Length of Day
Tomorrow will be .
, % of the Moon is Illuminated

Today's Extremes

State Highs State Lows

Community

WunderPhotos

Upload Photos

1,892,893 photos uploaded!

WunderBlog® & News

Nearby

Air Quality

  Air Quality AQ Index Pollutant
Not available.

Snow Depth

Station Depth Elevation

Earthquake Activity

City Distance Mag. Time & Date
Minimum magnitude displayed is 2.5.

Coastal Water Temperatures

Place Temperature

Stations

Nearby Weather Stations

Station Location Temp. Windchill Dew Point Humidity Wind Precip. Elev Updated Type
                   

Watches & Warnings

There are currently no watches in effect.